createdAt,value
2023-05-24T00:00:48.410Z,102431.38
2023-05-24T00:03:18.910Z,102433.09
2023-05-24T00:05:47.060Z,102430.44
2023-05-24T00:08:16.030Z,102424.19
2023-05-24T00:10:44.521Z,102420.66
2023-05-24T00:13:15.620Z,102426.91
2023-05-24T00:15:45.029Z,102426.91
2023-05-24T00:18:13.049Z,102421.56
2023-05-24T00:20:41.312Z,102418.06
2023-05-24T00:23:09.606Z,102417.09
2023-05-24T00:25:37.946Z,102410.88
2023-05-24T00:28:05.906Z,102402.84
2023-05-24T00:30:33.904Z,102401.09
2023-05-24T00:33:03.338Z,102394.00
2023-05-24T00:35:31.379Z,102394.91
2023-05-24T00:37:59.340Z,102393.19
2023-05-24T00:40:27.346Z,102391.38
2023-05-24T00:42:55.425Z,102394.06
2023-05-24T00:45:23.462Z,102391.38
2023-05-24T00:47:54.336Z,102391.38
2023-05-24T00:50:24.264Z,102394.13
2023-05-24T00:52:52.991Z,102391.44
2023-05-24T00:55:21.585Z,102377.19
2023-05-24T00:57:49.684Z,102376.31
2023-05-24T01:00:18.352Z,102376.31
2023-05-24T01:02:48.440Z,102379.00
2023-05-24T01:05:17.411Z,102376.34
2023-05-24T01:08:00.749Z,102381.66
2023-05-24T01:10:36.139Z,102388.84
2023-05-24T01:13:20.283Z,102388.00
2023-05-24T01:15:55.430Z,102382.66
2023-05-24T01:18:30.939Z,102380.91
2023-05-24T01:21:06.982Z,102375.56
2023-05-24T01:23:46.604Z,102388.94
2023-05-24T01:26:28.489Z,102373.78
2023-05-24T01:28:58.334Z,102380.03
2023-05-24T01:31:26.915Z,102382.75
2023-05-24T01:33:54.919Z,102386.38
2023-05-24T01:36:45.121Z,102384.56
2023-05-24T01:39:15.405Z,102379.28
2023-05-24T01:41:51.468Z,102386.38
2023-05-24T01:44:28.764Z,102380.16
2023-05-24T01:47:05.911Z,102381.03
2023-05-24T01:49:39.990Z,102381.09
2023-05-24T01:52:13.730Z,102380.19
2023-05-24T01:54:46.826Z,102385.56
2023-05-24T01:57:15.951Z,102382.88
2023-05-24T01:59:46.596Z,102386.50
2023-05-24T02:02:14.938Z,102388.31
2023-05-24T02:04:43.363Z,102380.28
2023-05-24T02:07:11.499Z,102387.44
2023-05-24T02:09:39.505Z,102384.75
2023-05-24T02:12:11.924Z,102386.63
2023-05-24T02:14:42.748Z,102384.75
2023-05-24T02:17:12.239Z,102386.63
2023-05-24T02:19:40.170Z,102385.69
2023-05-24T02:22:08.300Z,102388.38
2023-05-24T02:24:36.669Z,102394.59
2023-05-24T02:27:04.941Z,102383.94
2023-05-24T02:29:33.037Z,102380.38
2023-05-24T02:32:01.072Z,102387.56
2023-05-24T02:34:30.635Z,102384.00
2023-05-24T02:36:58.887Z,102390.31
2023-05-24T02:39:26.947Z,102376.94
2023-05-24T02:41:55.021Z,102375.22
2023-05-24T02:44:23.023Z,102380.50
2023-05-24T02:46:51.092Z,102383.13
2023-05-24T02:49:19.045Z,102385.81
2023-05-24T02:51:51.699Z,102381.31
2023-05-24T02:54:20.086Z,102384.88
2023-05-24T02:56:48.058Z,102379.50
2023-05-24T02:59:16.164Z,102394.66
2023-05-24T03:01:44.426Z,102386.63
2023-05-24T03:04:16.553Z,102377.78
2023-05-24T03:06:44.523Z,102380.38
2023-05-24T03:09:13.925Z,102382.19
2023-05-24T03:11:44.739Z,102373.28
2023-05-24T03:14:12.892Z,102367.19
2023-05-24T03:16:40.978Z,102375.09
2023-05-24T03:19:10.125Z,102367.06
2023-05-24T03:21:38.540Z,102365.31
2023-05-24T03:24:06.995Z,102365.31
2023-05-24T03:26:36.463Z,102364.44
2023-05-24T03:29:04.469Z,102352.84
2023-05-24T03:31:32.589Z,102355.59
2023-05-24T03:34:00.696Z,102351.19
2023-05-24T03:36:29.211Z,102360.13
2023-05-24T03:38:58.499Z,102356.53
2023-05-24T03:41:29.361Z,102358.34
2023-05-24T03:43:58.760Z,102359.25
2023-05-24T03:46:26.818Z,102356.56
2023-05-24T03:48:56.957Z,102362.88
2023-05-24T03:51:29.502Z,102355.78
2023-05-24T03:54:02.457Z,102360.19
2023-05-24T03:56:30.495Z,102351.28
2023-05-24T03:59:04.157Z,102353.97
2023-05-24T04:01:34.548Z,102348.69
2023-05-24T04:04:03.532Z,102360.19
2023-05-24T04:06:32.401Z,102347.75
2023-05-24T04:09:01.959Z,102353.97
2023-05-24T04:11:29.958Z,102358.47
2023-05-24T04:14:00.559Z,102352.22
2023-05-24T04:16:33.975Z,102355.81
2023-05-24T04:19:04.055Z,102351.41
2023-05-24T04:21:32.485Z,102362.19
2023-05-24T04:24:01.710Z,102355.06
2023-05-24T04:26:29.969Z,102362.19
2023-05-24T04:28:58.283Z,102356.00
2023-05-24T04:31:29.460Z,102355.06
2023-05-24T04:33:59.805Z,102365.84
2023-05-24T04:36:28.938Z,102364.03
2023-05-24T04:39:03.036Z,102369.41
2023-05-24T04:41:32.425Z,102369.41
2023-05-24T04:44:00.773Z,102377.38
2023-05-24T04:46:31.480Z,102378.25
2023-05-24T04:49:02.176Z,102374.63
2023-05-24T04:51:30.315Z,102370.22
2023-05-24T04:53:58.298Z,102377.25
2023-05-24T04:56:26.315Z,102374.56
2023-05-24T04:58:54.294Z,102375.47
2023-05-24T05:01:24.713Z,102382.56
2023-05-24T05:03:52.805Z,102381.63
2023-05-24T05:06:22.221Z,102378.00
2023-05-24T05:08:53.068Z,102370.91
2023-05-24T05:11:21.046Z,102371.78
2023-05-24T05:13:49.077Z,102373.50
2023-05-24T05:16:19.288Z,102369.06
2023-05-24T05:18:47.385Z,102378.84
2023-05-24T05:21:16.017Z,102376.16
2023-05-24T05:23:46.041Z,102382.31
2023-05-24T05:26:14.179Z,102379.78
2023-05-24T05:28:42.199Z,102376.03
2023-05-24T05:31:10.176Z,102381.41
2023-05-24T05:33:38.175Z,102383.13
2023-05-24T05:36:06.465Z,102384.88
2023-05-24T05:38:34.595Z,102378.66
2023-05-24T05:41:07.313Z,102381.25
2023-05-24T05:43:35.604Z,102382.16
2023-05-24T05:46:06.617Z,102383.91
2023-05-24T05:48:34.633Z,102389.19
2023-05-24T05:51:04.911Z,102384.69
2023-05-24T05:53:35.035Z,102382.88
2023-05-24T05:56:03.160Z,102374.84
2023-05-24T05:58:32.501Z,102382.84
2023-05-24T06:01:00.534Z,102387.25
2023-05-24T06:03:28.670Z,102384.56
2023-05-24T06:05:56.955Z,102394.44
2023-05-24T06:08:27.464Z,102396.16
2023-05-24T06:10:55.533Z,102397.91
2023-05-24T06:13:23.705Z,102403.22
2023-05-24T06:15:53.284Z,102390.75
2023-05-24T06:18:22.338Z,102398.72
2023-05-24T06:20:50.650Z,102403.16
2023-05-24T06:23:18.637Z,102411.19
2023-05-24T06:25:47.306Z,102420.06
2023-05-24T06:28:18.061Z,102416.50
2023-05-24T06:30:48.358Z,102414.69
2023-05-24T06:33:20.858Z,102416.44
2023-05-24T06:35:49.159Z,102419.09
2023-05-24T06:38:17.822Z,102415.56
2023-05-24T06:40:45.883Z,102420.91
2023-05-24T06:43:17.510Z,102421.72
2023-05-24T06:45:45.536Z,102421.66
2023-05-24T06:48:13.610Z,102427.03
2023-05-24T06:50:43.965Z,102422.53
2023-05-24T06:53:12.491Z,102417.19
2023-05-24T06:55:40.594Z,102423.41
2023-05-24T06:58:14.245Z,102418.91
2023-05-24T07:00:43.022Z,102418.91
2023-05-24T07:03:11.325Z,102419.00
2023-05-24T07:05:39.330Z,102424.28
2023-05-24T07:08:09.468Z,102426.06
2023-05-24T07:10:37.571Z,102423.41
2023-05-24T07:13:05.663Z,102428.78
2023-05-24T07:15:33.602Z,102426.97
2023-05-24T07:18:01.653Z,102425.22
2023-05-24T07:20:29.716Z,102433.19
2023-05-24T07:22:57.748Z,102432.31
2023-05-24T07:25:27.550Z,102436.78
2023-05-24T07:27:55.516Z,102438.53
2023-05-24T07:30:32.301Z,102434.97
2023-05-24T07:33:01.973Z,102434.97
2023-05-24T07:35:31.185Z,102420.69
2023-05-24T07:37:59.383Z,102425.13
2023-05-24T07:40:28.935Z,102432.28
2023-05-24T07:42:56.982Z,102431.41
2023-05-24T07:45:28.687Z,102429.59
2023-05-24T07:47:57.069Z,102434.97
2023-05-24T07:50:26.530Z,102420.69
2023-05-24T07:52:55.253Z,102422.47
2023-05-24T07:55:23.469Z,102416.19
2023-05-24T07:57:52.819Z,102418.91
2023-05-24T08:00:22.083Z,102426.06
2023-05-24T08:02:50.557Z,102417.09
2023-05-24T08:05:18.991Z,102419.78
2023-05-24T08:07:47.083Z,102418.88
2023-05-24T08:10:20.152Z,102412.66
2023-05-24T08:12:50.076Z,102421.56
2023-05-24T08:15:19.595Z,102416.19
2023-05-24T08:17:47.647Z,102413.53
2023-05-24T08:20:18.699Z,102417.97
2023-05-24T08:22:48.413Z,102415.28
2023-05-24T08:25:20.059Z,102414.34
2023-05-24T08:27:48.190Z,102417.03
2023-05-24T08:30:20.331Z,102414.31
2023-05-24T08:32:48.435Z,102409.00
2023-05-24T08:35:21.576Z,102410.72
2023-05-24T08:37:53.058Z,102417.00
2023-05-24T08:40:21.198Z,102410.72
2023-05-24T08:42:50.396Z,102408.94
2023-05-24T08:45:22.596Z,102414.22
2023-05-24T08:47:51.518Z,102413.38
2023-05-24T08:50:20.229Z,102422.19
2023-05-24T08:52:49.072Z,102415.97
2023-05-24T08:55:18.392Z,102405.25
2023-05-24T08:57:47.175Z,102407.91
2023-05-24T09:00:20.776Z,102405.22
2023-05-24T09:02:50.218Z,102409.66
2023-05-24T09:05:21.815Z,102407.00
2023-05-24T09:07:51.078Z,102408.75
2023-05-24T09:10:22.214Z,102411.44
2023-05-24T09:12:55.997Z,102396.22
2023-05-24T09:15:26.704Z,102408.69
2023-05-24T09:17:54.799Z,102402.47
2023-05-24T09:20:23.372Z,102401.50
2023-05-24T09:22:54.167Z,102410.50
2023-05-24T09:25:22.709Z,102411.44
2023-05-24T09:27:51.997Z,102411.44
2023-05-24T09:30:21.206Z,102410.50
2023-05-24T09:33:02.147Z,102405.13
2023-05-24T09:35:31.448Z,102408.69
2023-05-24T09:38:00.782Z,102398.91
2023-05-24T09:40:30.133Z,102405.13
2023-05-24T09:43:05.988Z,102402.47
2023-05-24T09:45:34.467Z,102409.56
2023-05-24T09:48:05.546Z,102418.47
2023-05-24T09:50:33.629Z,102406.00
2023-05-24T09:53:03.637Z,102411.38
2023-05-24T09:55:31.979Z,102406.88
2023-05-24T09:58:05.188Z,102417.59
2023-05-24T10:00:36.776Z,102415.84
2023-05-24T10:03:07.915Z,102410.44
2023-05-24T10:05:37.050Z,102407.75
2023-05-24T10:08:06.157Z,102410.44
2023-05-24T10:10:35.247Z,102407.75
2023-05-24T10:13:04.041Z,102405.97
2023-05-24T10:15:32.108Z,102408.66
2023-05-24T10:18:01.868Z,102410.44
2023-05-24T10:20:32.772Z,102410.44
2023-05-24T10:23:11.098Z,102408.66
2023-05-24T10:25:46.753Z,102413.09
2023-05-24T10:28:23.526Z,102420.22
2023-05-24T10:31:04.312Z,102411.31
2023-05-24T10:33:36.242Z,102406.88
2023-05-24T10:36:10.050Z,102413.09
2023-05-24T10:38:39.718Z,102413.09
2023-05-24T10:41:08.800Z,102414.00
2023-05-24T10:43:40.650Z,102411.31
2023-05-24T10:46:10.750Z,102406.88
2023-05-24T10:48:40.875Z,102412.22
2023-05-24T10:51:39.546Z,102409.50
2023-05-24T10:54:21.717Z,102401.50
2023-05-24T10:56:51.353Z,102392.56
2023-05-24T10:59:37.682Z,102392.56
2023-05-24T11:02:13.756Z,102384.53
2023-05-24T11:04:44.435Z,102387.13
2023-05-24T11:07:15.702Z,102385.41
2023-05-24T11:09:47.136Z,102372.84
2023-05-24T11:12:17.818Z,102374.59
2023-05-24T11:14:50.215Z,102386.19
2023-05-24T11:17:18.278Z,102381.69
2023-05-24T11:19:48.741Z,102379.00
2023-05-24T11:22:19.242Z,102377.16
2023-05-24T11:24:48.142Z,102378.97
2023-05-24T11:27:18.128Z,102380.78
2023-05-24T11:29:47.939Z,102376.34
2023-05-24T11:32:18.163Z,102380.78
2023-05-24T11:34:47.903Z,102375.44
2023-05-24T11:37:17.902Z,102385.19
2023-05-24T11:39:52.245Z,102379.84
2023-05-24T11:42:24.350Z,102378.97
2023-05-24T11:44:56.741Z,102379.84
2023-05-24T11:47:25.296Z,102372.66
2023-05-24T11:49:53.686Z,102379.84
2023-05-24T11:52:23.514Z,102371.91
2023-05-24T11:54:55.061Z,102380.72
2023-05-24T11:57:38.381Z,102376.22
2023-05-24T12:00:11.301Z,102375.34
2023-05-24T12:02:40.396Z,102378.91
2023-05-24T12:05:11.515Z,102378.91
2023-05-24T12:07:40.930Z,102370.84
2023-05-24T12:10:12.390Z,102373.53
2023-05-24T12:12:46.167Z,102354.78
2023-05-24T12:15:15.069Z,102367.22
2023-05-24T12:17:50.121Z,102356.50
2023-05-24T12:20:20.716Z,102364.56
2023-05-24T12:22:54.129Z,102360.06
2023-05-24T12:25:27.267Z,102352.97
2023-05-24T12:27:56.724Z,102356.50
2023-05-24T12:30:28.429Z,102358.28
2023-05-24T12:32:56.877Z,102359.16
2023-05-24T12:35:25.530Z,102349.28
2023-05-24T12:37:59.780Z,102355.53
2023-05-24T12:40:34.131Z,102358.13
2023-05-24T12:43:03.948Z,102353.66
2023-05-24T12:45:35.046Z,102350.03
2023-05-24T12:48:05.041Z,102352.78
2023-05-24T12:50:34.887Z,102353.78
2023-05-24T12:53:03.268Z,102352.91
2023-05-24T12:55:33.011Z,102353.72
2023-05-24T12:58:03.520Z,102350.09
2023-05-24T13:00:34.850Z,102353.50
2023-05-24T13:03:03.261Z,102358.88
2023-05-24T13:05:31.848Z,102352.53
2023-05-24T13:08:00.252Z,102348.91
2023-05-24T13:10:30.593Z,102356.00
2023-05-24T13:13:00.876Z,102353.28
2023-05-24T13:15:31.688Z,102356.81
2023-05-24T13:18:00.202Z,102361.25
2023-05-24T13:20:31.513Z,102357.66
2023-05-24T13:23:00.059Z,102357.56
2023-05-24T13:25:29.827Z,102365.63
2023-05-24T13:28:00.164Z,102360.25
2023-05-24T13:30:28.707Z,102359.31
2023-05-24T13:32:58.827Z,102361.13
2023-05-24T13:35:27.232Z,102351.25
2023-05-24T13:37:57.930Z,102350.31
2023-05-24T13:40:26.447Z,102349.44
2023-05-24T13:42:56.936Z,102347.63
2023-05-24T13:45:27.084Z,102348.53
2023-05-24T13:47:58.477Z,102347.63
2023-05-24T13:50:26.995Z,102353.00
2023-05-24T13:52:55.564Z,102352.09
2023-05-24T13:55:23.855Z,102350.31
2023-05-24T13:57:52.460Z,102357.50
2023-05-24T14:00:21.884Z,102362.00
2023-05-24T14:02:52.015Z,102356.69
2023-05-24T14:07:53.711Z,102362.06
2023-05-24T14:10:24.832Z,102359.38
2023-05-24T14:13:07.835Z,102352.22
2023-05-24T14:15:43.225Z,102363.81
2023-05-24T14:18:13.064Z,102361.13
2023-05-24T14:20:41.344Z,102362.00
2023-05-24T14:23:10.439Z,102370.09
2023-05-24T14:25:38.788Z,102363.81
2023-05-24T14:28:08.698Z,102360.25
2023-05-24T14:30:38.743Z,102367.44
2023-05-24T14:33:08.583Z,102363.81
2023-05-24T14:35:40.045Z,102348.66
2023-05-24T14:38:09.785Z,102355.75
2023-05-24T14:40:40.238Z,102361.13
2023-05-24T14:43:10.909Z,102362.94
2023-05-24T14:45:42.335Z,102368.28
2023-05-24T14:48:12.847Z,102372.78
2023-05-24T14:50:45.840Z,102375.47
2023-05-24T14:53:14.229Z,102370.09
2023-05-24T14:55:45.426Z,102374.66
2023-05-24T14:58:14.548Z,102382.69
2023-05-24T15:00:44.431Z,102375.59
2023-05-24T15:03:14.918Z,102377.41
2023-05-24T15:05:45.658Z,102379.22
2023-05-24T15:08:14.338Z,102377.44
2023-05-24T15:10:44.911Z,102384.56
2023-05-24T15:13:13.953Z,102395.31
2023-05-24T15:15:42.335Z,102384.56
2023-05-24T15:18:13.385Z,102385.50
2023-05-24T15:20:42.076Z,102377.53
2023-05-24T15:23:12.025Z,102383.72
2023-05-24T15:25:41.009Z,102380.13
2023-05-24T15:28:12.955Z,102386.38
2023-05-24T15:30:44.204Z,102382.81
2023-05-24T15:33:18.159Z,102391.75
2023-05-24T15:35:46.603Z,102388.16
2023-05-24T15:38:18.776Z,102392.66
2023-05-24T15:40:47.068Z,102396.22
2023-05-24T15:43:20.141Z,102395.31
2023-05-24T15:45:52.282Z,102392.75
2023-05-24T15:48:20.508Z,102391.75
2023-05-24T15:53:25.501Z,102397.97
2023-05-24T15:55:55.688Z,102391.75
2023-05-24T15:58:24.106Z,102398.91
2023-05-24T16:00:53.571Z,102399.78
2023-05-24T16:03:22.045Z,102390.84
2023-05-24T16:05:50.697Z,102390.84
2023-05-24T16:08:19.151Z,102396.22
2023-05-24T16:10:52.215Z,102389.94
2023-05-24T16:13:23.225Z,102378.38
2023-05-24T16:15:52.361Z,102385.44
2023-05-24T16:18:22.943Z,102380.94
2023-05-24T16:20:53.617Z,102376.47
2023-05-24T16:23:23.259Z,102373.78
2023-05-24T16:25:56.188Z,102374.72
2023-05-24T16:28:29.049Z,102367.53
2023-05-24T16:30:58.680Z,102371.09
2023-05-24T16:33:27.096Z,102371.06
2023-05-24T16:36:02.962Z,102363.00
2023-05-24T16:38:34.715Z,102368.22
2023-05-24T16:41:08.958Z,102365.50
2023-05-24T16:43:37.306Z,102365.50
2023-05-24T16:46:06.424Z,102356.44
2023-05-24T16:48:35.038Z,102365.38
2023-05-24T16:51:03.677Z,102359.06
2023-05-24T16:53:31.897Z,102359.06
2023-05-24T16:55:59.956Z,102352.75
2023-05-24T16:58:31.914Z,102357.13
2023-05-24T17:01:00.193Z,102356.19
2023-05-24T17:03:34.074Z,102355.31
2023-05-24T17:06:05.248Z,102350.91
2023-05-24T17:08:35.383Z,102355.34
2023-05-24T17:11:03.599Z,102357.25
2023-05-24T17:13:33.597Z,102358.13
2023-05-24T17:16:01.887Z,102356.31
2023-05-24T17:18:30.731Z,102356.31
2023-05-24T17:21:03.375Z,102358.13
2023-05-24T17:23:36.500Z,102357.25
2023-05-24T17:26:10.880Z,102358.19
2023-05-24T17:28:40.896Z,102363.56
2023-05-24T17:31:15.150Z,102366.25
2023-05-24T17:33:47.625Z,102364.53
2023-05-24T17:36:15.884Z,102361.00
2023-05-24T17:38:44.464Z,102371.72
2023-05-24T17:41:23.370Z,102361.94
2023-05-24T17:43:53.623Z,102368.22
2023-05-24T17:46:25.310Z,102373.59
2023-05-24T17:48:56.727Z,102367.31
2023-05-24T17:51:27.075Z,102378.06
2023-05-24T17:53:55.461Z,102377.22
2023-05-24T17:56:24.334Z,102377.22
2023-05-24T17:58:53.843Z,102386.06
2023-05-24T18:01:22.900Z,102386.06
2023-05-24T18:03:55.875Z,102383.44
2023-05-24T18:06:25.081Z,102381.63
2023-05-24T18:08:53.777Z,102379.97
2023-05-24T18:11:22.407Z,102385.31
2023-05-24T18:13:50.782Z,102384.47
2023-05-24T18:16:20.430Z,102383.56
2023-05-24T18:18:56.189Z,102384.50
2023-05-24T18:21:25.687Z,102378.19
2023-05-24T18:23:54.525Z,102389.81
2023-05-24T18:26:23.047Z,102379.09
2023-05-24T18:28:51.574Z,102384.47
2023-05-24T18:31:21.959Z,102382.69
2023-05-24T18:33:53.779Z,102381.78
2023-05-24T18:36:24.013Z,102382.69
2023-05-24T18:38:55.456Z,102377.31
2023-05-24T18:41:31.074Z,102379.13
2023-05-24T18:43:59.672Z,102384.50
2023-05-24T18:46:29.926Z,102385.38
2023-05-24T18:49:00.602Z,102392.53
2023-05-24T18:51:30.304Z,102390.81
2023-05-24T18:53:58.490Z,102394.34
2023-05-24T18:56:27.003Z,102399.72
2023-05-24T18:59:00.034Z,102396.16
2023-05-24T19:01:30.037Z,102397.91
2023-05-24T19:03:58.742Z,102401.47
2023-05-24T19:06:26.825Z,102397.03
2023-05-24T19:08:56.580Z,102404.22
2023-05-24T19:11:24.780Z,102406.91
2023-05-24T19:13:54.597Z,102409.63
2023-05-24T19:16:29.075Z,102411.38
2023-05-24T19:19:00.042Z,102411.31
2023-05-24T19:21:29.258Z,102417.50
2023-05-24T19:23:59.530Z,102421.09
2023-05-24T19:26:27.638Z,102415.72
2023-05-24T19:29:00.678Z,102416.63
2023-05-24T19:31:35.872Z,102423.72
2023-05-24T19:34:06.138Z,102426.41
2023-05-24T19:36:34.363Z,102424.53
2023-05-24T19:39:03.090Z,102430.75
2023-05-24T19:41:35.317Z,102432.56
2023-05-24T19:44:03.589Z,102436.06
2023-05-24T19:46:32.020Z,102435.25
2023-05-24T19:49:03.364Z,102432.56
2023-05-24T19:51:43.220Z,102437.94
2023-05-24T19:54:13.042Z,102437.06
2023-05-24T19:56:42.453Z,102444.25
2023-05-24T19:59:13.268Z,102447.78
2023-05-24T20:01:44.709Z,102446.03
2023-05-24T20:04:27.287Z,102448.72
2023-05-24T20:06:56.754Z,102452.28
2023-05-24T20:09:30.720Z,102452.34
2023-05-24T20:12:02.837Z,102453.25
2023-05-24T20:14:31.854Z,102458.69
2023-05-24T20:17:05.044Z,102464.88
2023-05-24T20:19:33.878Z,102467.63
2023-05-24T20:22:07.813Z,102467.69
2023-05-24T20:24:35.923Z,102468.56
2023-05-24T20:27:04.676Z,102468.59
2023-05-24T20:29:34.116Z,102465.91
2023-05-24T20:32:04.248Z,102470.41
2023-05-24T20:34:34.476Z,102470.47
2023-05-24T20:37:02.926Z,102467.81
2023-05-24T20:39:35.129Z,102470.56
2023-05-24T20:42:06.543Z,102479.47
2023-05-24T20:44:35.612Z,102481.28
2023-05-24T20:47:03.659Z,102475.09
2023-05-24T20:49:33.085Z,102479.50
2023-05-24T20:52:01.558Z,102484.88
2023-05-24T20:54:30.694Z,102479.59
2023-05-24T20:57:02.833Z,102483.13
2023-05-24T20:59:32.441Z,102488.50
2023-05-24T21:02:01.136Z,102485.88
2023-05-24T21:04:32.223Z,102485.00
2023-05-24T21:07:01.997Z,102486.78
2023-05-24T21:09:33.164Z,102488.69
2023-05-24T21:12:05.035Z,102487.75
2023-05-24T21:14:36.919Z,102489.56
2023-05-24T21:17:05.203Z,102486.94
2023-05-24T21:19:33.267Z,102494.97
2023-05-24T21:22:01.527Z,102494.16
2023-05-24T21:24:30.112Z,102493.22
2023-05-24T21:26:58.410Z,102491.47
2023-05-24T21:29:27.896Z,102503.06
2023-05-24T21:31:56.216Z,102506.69
2023-05-24T21:34:24.420Z,102500.47
2023-05-24T21:36:52.940Z,102505.81
2023-05-24T21:39:23.715Z,102508.50
2023-05-24T21:41:52.027Z,102507.63
2023-05-24T21:44:20.249Z,102512.13
2023-05-24T21:46:56.586Z,102521.06
2023-05-24T21:49:25.436Z,102513.09
2023-05-24T21:51:53.663Z,102522.00
2023-05-24T21:54:21.973Z,102522.09
2023-05-24T21:56:50.473Z,102527.47
2023-05-24T21:59:18.692Z,102528.41
2023-05-24T22:01:49.795Z,102525.81
2023-05-24T22:04:19.673Z,102531.16
2023-05-24T22:06:48.032Z,102526.72
2023-05-24T22:09:17.723Z,102525.91
2023-05-24T22:11:46.371Z,102531.28
2023-05-24T22:14:15.034Z,102535.78
2023-05-24T22:16:43.632Z,102534.00
2023-05-24T22:19:14.956Z,102538.50
2023-05-24T22:21:50.433Z,102541.16
2023-05-24T22:24:18.832Z,102538.56
2023-05-24T22:26:47.728Z,102542.09
2023-05-24T22:29:16.084Z,102542.16
2023-05-24T22:31:44.184Z,102545.72
2023-05-24T22:34:15.356Z,102543.06
2023-05-24T22:36:46.349Z,102553.78
2023-05-24T22:39:16.021Z,102554.72
2023-05-24T22:41:43.949Z,102561.88
2023-05-24T22:44:14.706Z,102566.38
2023-05-24T22:46:42.815Z,102560.13
2023-05-24T22:49:13.456Z,102561.03
2023-05-24T22:51:44.160Z,102559.28
2023-05-24T22:54:12.521Z,102561.13
2023-05-24T22:56:42.026Z,102568.22
2023-05-24T22:59:10.156Z,102570.97
2023-05-24T23:01:38.303Z,102560.25
2023-05-24T23:04:19.839Z,102575.44
2023-05-24T23:06:52.658Z,102563.88
2023-05-24T23:09:28.946Z,102573.72
2023-05-24T23:11:58.974Z,102572.81
2023-05-24T23:14:30.317Z,102566.59
2023-05-24T23:17:02.639Z,102567.53
2023-05-24T23:19:31.193Z,102566.69
2023-05-24T23:21:59.346Z,102564.84
2023-05-24T23:24:27.490Z,102562.22
2023-05-24T23:26:57.043Z,102561.31
2023-05-24T23:29:26.599Z,102562.22
2023-05-24T23:31:54.666Z,102567.59
2023-05-24T23:34:22.659Z,102558.66
2023-05-24T23:36:50.718Z,102568.50
2023-05-24T23:39:18.908Z,102556.91
2023-05-24T23:41:46.851Z,102561.41
2023-05-24T23:44:14.869Z,102556.91
2023-05-24T23:46:44.311Z,102554.22
2023-05-24T23:49:12.812Z,102564.94
2023-05-24T23:51:40.796Z,102556.97
2023-05-24T23:54:14.685Z,102562.38
2023-05-24T23:56:44.875Z,102556.09
2023-05-24T23:59:12.897Z,102563.28
